Terminal Aerodrome Forecast
Issued by NWS

Home | Current Version | Previous Version | Text Only | Print | Product List | Glossary On
Versions: 1 2 3 4 5 6 7 8 9 10 11 12 13 14 15 16 17 18 19 20 21 22 23 24 25 26 27 28 29 30 31 32 33 34 35 36 37 38
000
FTUS43 KPAH 171120
TAFCGI
TAF
KCGI 171120Z 1712/1812 VRB03KT P6SM SCT025 BKN100
     FM171700 21008KT P6SM VCTS BKN030CB
     FM180100 VRB03KT P6SM VCSH SCT020 BKN040
     FM180900 VRB02KT 3SM BR VCSH SCT005 BKN010=

USA.gov is the U.S. government's official web portal to all federal, state and local government web resources and services.